sensor_id;sensor_type;location;lat;lon;timestamp;P1;durP1;ratioP1;P2;durP2;ratioP2
54557;SDS011;40452;50.080;20.040;2022-12-11T00:01:19;12.18;;;6.97;;
54557;SDS011;40452;50.080;20.040;2022-12-11T00:03:45;11.20;;;7.00;;
54557;SDS011;40452;50.080;20.040;2022-12-11T00:06:12;11.80;;;6.85;;
54557;SDS011;40452;50.080;20.040;2022-12-11T00:08:40;10.52;;;6.90;;
54557;SDS011;40452;50.080;20.040;2022-12-11T00:11:13;10.10;;;6.28;;
54557;SDS011;40452;50.080;20.040;2022-12-11T00:13:40;9.98;;;6.20;;
54557;SDS011;40452;50.080;20.040;2022-12-11T00:16:06;10.15;;;6.75;;
54557;SDS011;40452;50.080;20.040;2022-12-11T00:18:32;10.57;;;6.43;;
54557;SDS011;40452;50.080;20.040;2022-12-11T00:21:04;9.75;;;6.35;;
54557;SDS011;40452;50.080;20.040;2022-12-11T00:23:36;10.38;;;5.97;;
54557;SDS011;40452;50.080;20.040;2022-12-11T00:26:05;9.63;;;6.00;;
54557;SDS011;40452;50.080;20.040;2022-12-11T00:28:33;9.93;;;6.10;;
54557;SDS011;40452;50.080;20.040;2022-12-11T00:31:01;9.90;;;5.95;;
54557;SDS011;40452;50.080;20.040;2022-12-11T00:33:31;9.57;;;6.00;;
54557;SDS011;40452;50.080;20.040;2022-12-11T00:35:57;10.90;;;5.93;;
54557;SDS011;40452;50.080;20.040;2022-12-11T00:38:23;8.88;;;5.40;;
54557;SDS011;40452;50.080;20.040;2022-12-11T00:40:48;11.50;;;6.72;;
54557;SDS011;40452;50.080;20.040;2022-12-11T00:43:14;10.02;;;6.10;;
54557;SDS011;40452;50.080;20.040;2022-12-11T00:45:41;9.73;;;5.72;;
54557;SDS011;40452;50.080;20.040;2022-12-11T00:48:09;9.75;;;5.95;;
54557;SDS011;40452;50.080;20.040;2022-12-11T00:50:35;9.05;;;5.38;;
54557;SDS011;40452;50.080;20.040;2022-12-11T00:53:01;9.18;;;5.45;;
54557;SDS011;40452;50.080;20.040;2022-12-11T00:55:28;9.52;;;5.82;;
54557;SDS011;40452;50.080;20.040;2022-12-11T00:57:54;9.70;;;6.22;;
54557;SDS011;40452;50.080;20.040;2022-12-11T01:00:20;10.38;;;5.28;;
54557;SDS011;40452;50.080;20.040;2022-12-11T01:02:46;9.43;;;6.03;;
54557;SDS011;40452;50.080;20.040;2022-12-11T01:05:12;8.80;;;5.70;;
54557;SDS011;40452;50.080;20.040;2022-12-11T01:07:38;9.90;;;6.00;;
54557;SDS011;40452;50.080;20.040;2022-12-11T01:10:04;8.95;;;6.13;;
54557;SDS011;40452;50.080;20.040;2022-12-11T01:12:48;9.60;;;6.22;;
54557;SDS011;40452;50.080;20.040;2022-12-11T01:15:23;9.13;;;6.10;;
54557;SDS011;40452;50.080;20.040;2022-12-11T01:17:50;8.98;;;5.65;;
54557;SDS011;40452;50.080;20.040;2022-12-11T01:20:17;9.18;;;5.90;;
54557;SDS011;40452;50.080;20.040;2022-12-11T07:23:59;4.75;;;3.17;;
54557;SDS011;40452;50.080;20.040;2022-12-11T07:26:25;4.45;;;3.30;;
54557;SDS011;40452;50.080;20.040;2022-12-11T07:28:50;5.85;;;3.42;;
54557;SDS011;40452;50.080;20.040;2022-12-11T07:31:18;4.82;;;3.30;;
54557;SDS011;40452;50.080;20.040;2022-12-11T07:33:45;7.47;;;3.30;;
54557;SDS011;40452;50.080;20.040;2022-12-11T07:36:12;4.75;;;3.42;;
54557;SDS011;40452;50.080;20.040;2022-12-11T07:38:38;4.82;;;3.38;;
54557;SDS011;40452;50.080;20.040;2022-12-11T07:41:05;4.82;;;3.00;;
54557;SDS011;40452;50.080;20.040;2022-12-11T07:43:33;4.40;;;3.15;;
54557;SDS011;40452;50.080;20.040;2022-12-11T07:46:03;5.15;;;3.25;;
54557;SDS011;40452;50.080;20.040;2022-12-11T07:48:30;5.70;;;2.90;;
54557;SDS011;40452;50.080;20.040;2022-12-11T07:51:06;4.47;;;3.22;;
54557;SDS011;40452;50.080;20.040;2022-12-11T07:53:33;3.88;;;3.05;;
54557;SDS011;40452;50.080;20.040;2022-12-11T07:55:58;4.47;;;3.10;;
54557;SDS011;40452;50.080;20.040;2022-12-11T07:58:24;4.30;;;2.90;;
54557;SDS011;40452;50.080;20.040;2022-12-11T08:00:49;4.70;;;3.20;;
54557;SDS011;40452;50.080;20.040;2022-12-11T08:03:15;4.78;;;3.00;;
54557;SDS011;40452;50.080;20.040;2022-12-11T08:05:45;4.35;;;3.10;;
54557;SDS011;40452;50.080;20.040;2022-12-11T08:08:13;4.07;;;3.05;;
54557;SDS011;40452;50.080;20.040;2022-12-11T08:10:39;5.00;;;3.13;;
54557;SDS011;40452;50.080;20.040;2022-12-11T08:13:04;5.05;;;3.47;;
54557;SDS011;40452;50.080;20.040;2022-12-11T08:15:29;4.55;;;3.28;;
54557;SDS011;40452;50.080;20.040;2022-12-11T08:17:55;5.15;;;3.60;;
54557;SDS011;40452;50.080;20.040;2022-12-11T08:20:20;5.45;;;3.25;;
54557;SDS011;40452;50.080;20.040;2022-12-11T08:22:46;5.15;;;3.40;;
54557;SDS011;40452;50.080;20.040;2022-12-11T08:25:11;5.45;;;3.72;;
54557;SDS011;40452;50.080;20.040;2022-12-11T08:27:37;8.32;;;3.95;;
54557;SDS011;40452;50.080;20.040;2022-12-11T08:30:02;6.00;;;3.80;;
54557;SDS011;40452;50.080;20.040;2022-12-11T08:32:28;10.07;;;3.80;;
54557;SDS011;40452;50.080;20.040;2022-12-11T08:34:54;6.35;;;3.83;;
54557;SDS011;40452;50.080;20.040;2022-12-11T08:37:20;7.60;;;4.03;;
54557;SDS011;40452;50.080;20.040;2022-12-11T08:39:45;5.60;;;3.55;;
54557;SDS011;40452;50.080;20.040;2022-12-11T08:42:11;7.40;;;3.88;;
54557;SDS011;40452;50.080;20.040;2022-12-11T08:44:36;6.88;;;4.30;;
54557;SDS011;40452;50.080;20.040;2022-12-11T08:47:02;7.30;;;4.22;;
54557;SDS011;40452;50.080;20.040;2022-12-11T08:49:28;6.88;;;3.50;;
54557;SDS011;40452;50.080;20.040;2022-12-11T08:51:53;6.82;;;4.47;;
54557;SDS011;40452;50.080;20.040;2022-12-11T08:54:19;6.03;;;4.05;;
54557;SDS011;40452;50.080;20.040;2022-12-11T08:56:45;5.97;;;3.80;;
54557;SDS011;40452;50.080;20.040;2022-12-11T08:59:10;6.35;;;4.05;;
54557;SDS011;40452;50.080;20.040;2022-12-11T09:01:36;6.75;;;4.20;;
54557;SDS011;40452;50.080;20.040;2022-12-11T09:04:02;6.15;;;4.18;;
54557;SDS011;40452;50.080;20.040;2022-12-11T09:06:28;6.00;;;4.35;;
54557;SDS011;40452;50.080;20.040;2022-12-11T09:08:54;5.80;;;4.57;;
54557;SDS011;40452;50.080;20.040;2022-12-11T09:11:24;7.25;;;4.60;;
54557;SDS011;40452;50.080;20.040;2022-12-11T09:16:20;5.38;;;3.75;;
54557;SDS011;40452;50.080;20.040;2022-12-11T09:18:48;7.93;;;4.45;;
54557;SDS011;40452;50.080;20.040;2022-12-11T09:21:15;6.28;;;4.30;;
54557;SDS011;40452;50.080;20.040;2022-12-11T09:23:43;6.40;;;4.38;;
54557;SDS011;40452;50.080;20.040;2022-12-11T09:26:10;6.68;;;4.22;;
54557;SDS011;40452;50.080;20.040;2022-12-11T09:28:37;5.50;;;4.25;;
54557;SDS011;40452;50.080;20.040;2022-12-11T09:31:08;12.32;;;4.63;;
54557;SDS011;40452;50.080;20.040;2022-12-11T09:34:00;7.88;;;4.55;;
54557;SDS011;40452;50.080;20.040;2022-12-11T09:36:29;12.48;;;5.10;;
54557;SDS011;40452;50.080;20.040;2022-12-11T09:38:58;14.85;;;5.15;;
54557;SDS011;40452;50.080;20.040;2022-12-11T09:42:10;12.60;;;6.45;;
54557;SDS011;40452;50.080;20.040;2022-12-11T09:44:37;16.58;;;6.45;;
54557;SDS011;40452;50.080;20.040;2022-12-11T09:47:18;28.85;;;7.13;;
54557;SDS011;40452;50.080;20.040;2022-12-11T09:49:56;16.27;;;7.15;;
54557;SDS011;40452;50.080;20.040;2022-12-11T09:55:24;15.32;;;8.10;;
54557;SDS011;40452;50.080;20.040;2022-12-11T09:57:59;14.98;;;8.05;;
54557;SDS011;40452;50.080;20.040;2022-12-11T10:00:36;14.70;;;8.85;;
54557;SDS011;40452;50.080;20.040;2022-12-11T10:08:34;15.70;;;9.15;;
54557;SDS011;40452;50.080;20.040;2022-12-11T10:14:10;13.45;;;9.00;;
54557;SDS011;40452;50.080;20.040;2022-12-11T10:16:44;17.55;;;10.13;;
54557;SDS011;40452;50.080;20.040;2022-12-11T10:19:18;15.55;;;10.85;;
54557;SDS011;40452;50.080;20.040;2022-12-11T10:21:46;15.65;;;10.82;;
54557;SDS011;40452;50.080;20.040;2022-12-11T10:24:19;17.90;;;12.43;;
54557;SDS011;40452;50.080;20.040;2022-12-11T10:27:21;18.33;;;11.88;;
54557;SDS011;40452;50.080;20.040;2022-12-11T10:29:55;20.33;;;12.80;;
54557;SDS011;40452;50.080;20.040;2022-12-11T10:38:00;20.92;;;13.75;;
54557;SDS011;40452;50.080;20.040;2022-12-11T10:40:39;19.52;;;13.48;;
54557;SDS011;40452;50.080;20.040;2022-12-11T10:43:17;22.30;;;14.50;;
54557;SDS011;40452;50.080;20.040;2022-12-11T10:45:50;22.17;;;14.55;;
54557;SDS011;40452;50.080;20.040;2022-12-11T10:48:17;19.50;;;13.98;;
54557;SDS011;40452;50.080;20.040;2022-12-11T10:50:43;23.50;;;15.05;;
54557;SDS011;40452;50.080;20.040;2022-12-11T10:53:20;25.27;;;14.50;;
54557;SDS011;40452;50.080;20.040;2022-12-11T10:55:48;24.55;;;14.95;;
54557;SDS011;40452;50.080;20.040;2022-12-11T10:58:18;23.70;;;14.43;;
54557;SDS011;40452;50.080;20.040;2022-12-11T11:00:48;21.52;;;14.40;;
54557;SDS011;40452;50.080;20.040;2022-12-11T11:04:13;21.70;;;14.50;;
54557;SDS011;40452;50.080;20.040;2022-12-11T11:06:42;22.75;;;14.50;;
54557;SDS011;40452;50.080;20.040;2022-12-11T11:11:54;20.35;;;13.60;;
54557;SDS011;40452;50.080;20.040;2022-12-11T11:14:20;19.38;;;13.20;;
54557;SDS011;40452;50.080;20.040;2022-12-11T11:16:47;20.25;;;12.95;;
54557;SDS011;40452;50.080;20.040;2022-12-11T11:19:19;17.83;;;11.95;;
54557;SDS011;40452;50.080;20.040;2022-12-11T11:21:57;17.80;;;12.48;;
54557;SDS011;40452;50.080;20.040;2022-12-11T11:26:54;19.38;;;13.57;;
54557;SDS011;40452;50.080;20.040;2022-12-11T11:29:22;24.17;;;15.50;;
54557;SDS011;40452;50.080;20.040;2022-12-11T11:31:52;27.75;;;16.90;;
54557;SDS011;40452;50.080;20.040;2022-12-11T11:34:19;25.75;;;16.27;;
54557;SDS011;40452;50.080;20.040;2022-12-11T11:36:56;24.27;;;16.05;;
54557;SDS011;40452;50.080;20.040;2022-12-11T11:39:30;22.60;;;15.18;;
54557;SDS011;40452;50.080;20.040;2022-12-11T11:42:10;22.38;;;15.32;;
54557;SDS011;40452;50.080;20.040;2022-12-11T11:47:25;22.70;;;15.65;;
54557;SDS011;40452;50.080;20.040;2022-12-11T11:50:10;22.58;;;15.43;;
54557;SDS011;40452;50.080;20.040;2022-12-11T11:52:48;27.48;;;15.50;;
54557;SDS011;40452;50.080;20.040;2022-12-11T11:55:41;23.65;;;16.05;;
54557;SDS011;40452;50.080;20.040;2022-12-11T11:58:17;23.27;;;15.00;;
54557;SDS011;40452;50.080;20.040;2022-12-11T12:00:52;21.70;;;14.32;;
54557;SDS011;40452;50.080;20.040;2022-12-11T12:03:19;21.33;;;14.98;;
54557;SDS011;40452;50.080;20.040;2022-12-11T12:08:29;22.08;;;14.68;;
54557;SDS011;40452;50.080;20.040;2022-12-11T12:17:11;22.63;;;15.73;;
54557;SDS011;40452;50.080;20.040;2022-12-11T12:42:59;20.33;;;13.18;;
54557;SDS011;40452;50.080;20.040;2022-12-11T12:47:40;19.67;;;12.55;;
54557;SDS011;40452;50.080;20.040;2022-12-11T12:50:15;19.48;;;12.38;;
54557;SDS011;40452;50.080;20.040;2022-12-11T12:52:43;16.42;;;11.82;;
54557;SDS011;40452;50.080;20.040;2022-12-11T12:57:37;17.42;;;11.52;;
54557;SDS011;40452;50.080;20.040;2022-12-11T13:00:06;17.20;;;11.38;;
54557;SDS011;40452;50.080;20.040;2022-12-11T13:02:33;18.63;;;11.73;;
54557;SDS011;40452;50.080;20.040;2022-12-11T13:05:23;19.33;;;12.05;;
54557;SDS011;40452;50.080;20.040;2022-12-11T13:07:52;17.73;;;11.00;;
54557;SDS011;40452;50.080;20.040;2022-12-11T13:12:54;16.38;;;11.00;;
54557;SDS011;40452;50.080;20.040;2022-12-11T13:19:05;19.40;;;11.15;;
54557;SDS011;40452;50.080;20.040;2022-12-11T13:21:02;15.13;;;10.57;;
54557;SDS011;40452;50.080;20.040;2022-12-11T13:23:47;21.27;;;10.00;;
54557;SDS011;40452;50.080;20.040;2022-12-11T13:26:25;13.77;;;9.85;;
54557;SDS011;40452;50.080;20.040;2022-12-11T13:28:56;16.67;;;10.32;;
54557;SDS011;40452;50.080;20.040;2022-12-11T13:31:38;14.25;;;9.65;;
54557;SDS011;40452;50.080;20.040;2022-12-11T13:34:12;15.45;;;9.43;;
54557;SDS011;40452;50.080;20.040;2022-12-11T13:36:46;20.13;;;10.35;;
54557;SDS011;40452;50.080;20.040;2022-12-11T13:42:05;17.90;;;10.00;;
54557;SDS011;40452;50.080;20.040;2022-12-11T13:44:45;14.48;;;10.40;;
54557;SDS011;40452;50.080;20.040;2022-12-11T13:47:13;16.33;;;11.05;;
54557;SDS011;40452;50.080;20.040;2022-12-11T13:49:41;15.18;;;11.05;;
54557;SDS011;40452;50.080;20.040;2022-12-11T13:52:16;15.65;;;11.15;;
54557;SDS011;40452;50.080;20.040;2022-12-11T13:54:48;16.13;;;10.95;;
54557;SDS011;40452;50.080;20.040;2022-12-11T13:59:46;21.65;;;11.50;;
54557;SDS011;40452;50.080;20.040;2022-12-11T14:04:51;15.50;;;10.82;;
54557;SDS011;40452;50.080;20.040;2022-12-11T14:07:24;16.60;;;11.10;;
54557;SDS011;40452;50.080;20.040;2022-12-11T14:09:54;17.13;;;10.82;;
54557;SDS011;40452;50.080;20.040;2022-12-11T14:12:26;19.98;;;11.30;;
54557;SDS011;40452;50.080;20.040;2022-12-11T14:14:54;16.23;;;10.73;;
54557;SDS011;40452;50.080;20.040;2022-12-11T14:17:22;17.73;;;11.07;;
54557;SDS011;40452;50.080;20.040;2022-12-11T14:19:52;16.95;;;10.52;;
54557;SDS011;40452;50.080;20.040;2022-12-11T14:22:19;15.93;;;10.43;;
54557;SDS011;40452;50.080;20.040;2022-12-11T14:24:53;20.17;;;11.65;;
54557;SDS011;40452;50.080;20.040;2022-12-11T14:27:21;19.45;;;12.77;;
54557;SDS011;40452;50.080;20.040;2022-12-11T14:29:48;21.80;;;13.27;;
54557;SDS011;40452;50.080;20.040;2022-12-11T14:32:34;25.02;;;14.85;;
54557;SDS011;40452;50.080;20.040;2022-12-11T14:35:03;26.73;;;15.80;;
54557;SDS011;40452;50.080;20.040;2022-12-11T14:37:34;20.27;;;13.77;;
54557;SDS011;40452;50.080;20.040;2022-12-11T14:40:02;27.02;;;13.82;;
54557;SDS011;40452;50.080;20.040;2022-12-11T14:42:43;22.80;;;14.05;;
54557;SDS011;40452;50.080;20.040;2022-12-11T14:47:57;24.50;;;14.88;;
54557;SDS011;40452;50.080;20.040;2022-12-11T14:50:26;21.95;;;13.90;;
54557;SDS011;40452;50.080;20.040;2022-12-11T14:53:03;22.00;;;12.98;;
54557;SDS011;40452;50.080;20.040;2022-12-11T14:55:33;22.73;;;12.63;;
54557;SDS011;40452;50.080;20.040;2022-12-11T14:58:03;21.33;;;12.65;;
54557;SDS011;40452;50.080;20.040;2022-12-11T15:00:35;20.98;;;11.88;;
54557;SDS011;40452;50.080;20.040;2022-12-11T15:03:03;19.00;;;11.95;;
54557;SDS011;40452;50.080;20.040;2022-12-11T15:05:53;18.30;;;11.82;;
54557;SDS011;40452;50.080;20.040;2022-12-11T15:11:06;19.35;;;11.57;;
54557;SDS011;40452;50.080;20.040;2022-12-11T15:13:54;17.95;;;11.88;;
54557;SDS011;40452;50.080;20.040;2022-12-11T15:16:23;18.08;;;11.48;;
54557;SDS011;40452;50.080;20.040;2022-12-11T15:18:51;19.08;;;11.98;;
54557;SDS011;40452;50.080;20.040;2022-12-11T15:21:18;19.73;;;12.38;;
54557;SDS011;40452;50.080;20.040;2022-12-11T15:23:56;19.52;;;12.55;;
54557;SDS011;40452;50.080;20.040;2022-12-11T15:26:33;21.90;;;12.55;;
54557;SDS011;40452;50.080;20.040;2022-12-11T15:29:02;21.83;;;12.43;;
54557;SDS011;40452;50.080;20.040;2022-12-11T15:31:31;20.08;;;11.43;;
54557;SDS011;40452;50.080;20.040;2022-12-11T15:33:59;16.42;;;10.98;;
54557;SDS011;40452;50.080;20.040;2022-12-11T15:36:29;17.45;;;10.98;;
54557;SDS011;40452;50.080;20.040;2022-12-11T15:38:59;20.75;;;12.13;;
54557;SDS011;40452;50.080;20.040;2022-12-11T15:41:26;20.60;;;11.60;;
54557;SDS011;40452;50.080;20.040;2022-12-11T15:43:57;17.17;;;10.80;;
54557;SDS011;40452;50.080;20.040;2022-12-11T15:46:26;17.83;;;10.70;;
54557;SDS011;40452;50.080;20.040;2022-12-11T15:48:52;17.27;;;11.30;;
54557;SDS011;40452;50.080;20.040;2022-12-11T15:51:17;17.27;;;10.55;;
54557;SDS011;40452;50.080;20.040;2022-12-11T15:53:43;18.13;;;10.18;;
54557;SDS011;40452;50.080;20.040;2022-12-11T15:56:11;16.10;;;10.20;;
54557;SDS011;40452;50.080;20.040;2022-12-11T15:58:38;17.03;;;10.73;;
54557;SDS011;40452;50.080;20.040;2022-12-11T16:01:04;17.33;;;11.20;;
54557;SDS011;40452;50.080;20.040;2022-12-11T16:03:30;16.08;;;10.55;;
54557;SDS011;40452;50.080;20.040;2022-12-11T16:05:56;15.43;;;10.50;;
54557;SDS011;40452;50.080;20.040;2022-12-11T16:08:22;15.38;;;9.60;;
54557;SDS011;40452;50.080;20.040;2022-12-11T16:10:49;17.33;;;10.63;;
54557;SDS011;40452;50.080;20.040;2022-12-11T16:13:16;15.30;;;9.60;;
54557;SDS011;40452;50.080;20.040;2022-12-11T16:15:43;15.32;;;10.05;;
54557;SDS011;40452;50.080;20.040;2022-12-11T16:18:11;15.68;;;10.68;;
54557;SDS011;40452;50.080;20.040;2022-12-11T16:20:39;17.30;;;9.45;;
54557;SDS011;40452;50.080;20.040;2022-12-11T16:23:07;15.98;;;9.75;;
54557;SDS011;40452;50.080;20.040;2022-12-11T16:25:35;14.00;;;9.23;;
54557;SDS011;40452;50.080;20.040;2022-12-11T16:28:01;16.70;;;9.65;;
54557;SDS011;40452;50.080;20.040;2022-12-11T16:30:27;14.23;;;9.80;;
54557;SDS011;40452;50.080;20.040;2022-12-11T16:32:53;14.32;;;9.50;;
54557;SDS011;40452;50.080;20.040;2022-12-11T16:35:19;16.33;;;10.23;;
54557;SDS011;40452;50.080;20.040;2022-12-11T16:37:47;15.48;;;9.65;;
54557;SDS011;40452;50.080;20.040;2022-12-11T16:40:14;16.77;;;10.18;;
54557;SDS011;40452;50.080;20.040;2022-12-11T16:42:40;16.27;;;10.50;;
54557;SDS011;40452;50.080;20.040;2022-12-11T16:45:07;16.17;;;9.80;;
54557;SDS011;40452;50.080;20.040;2022-12-11T16:47:36;18.23;;;11.37;;
54557;SDS011;40452;50.080;20.040;2022-12-11T16:50:01;22.17;;;11.32;;
54557;SDS011;40452;50.080;20.040;2022-12-11T16:52:27;18.58;;;11.45;;
54557;SDS011;40452;50.080;20.040;2022-12-11T16:54:53;19.42;;;12.15;;
54557;SDS011;40452;50.080;20.040;2022-12-11T16:57:20;17.35;;;11.52;;
54557;SDS011;40452;50.080;20.040;2022-12-11T16:59:46;15.75;;;10.98;;
54557;SDS011;40452;50.080;20.040;2022-12-11T17:02:11;17.52;;;11.35;;
54557;SDS011;40452;50.080;20.040;2022-12-11T17:04:37;17.17;;;11.13;;
54557;SDS011;40452;50.080;20.040;2022-12-11T17:07:04;16.25;;;10.52;;
54557;SDS011;40452;50.080;20.040;2022-12-11T17:09:29;20.48;;;11.75;;
54557;SDS011;40452;50.080;20.040;2022-12-11T17:11:56;16.80;;;10.98;;
54557;SDS011;40452;50.080;20.040;2022-12-11T17:14:21;17.85;;;11.63;;
54557;SDS011;40452;50.080;20.040;2022-12-11T17:16:47;20.33;;;11.43;;
54557;SDS011;40452;50.080;20.040;2022-12-11T17:19:13;16.13;;;11.05;;
54557;SDS011;40452;50.080;20.040;2022-12-11T17:21:39;15.60;;;11.23;;
54557;SDS011;40452;50.080;20.040;2022-12-11T17:24:05;19.02;;;12.05;;
54557;SDS011;40452;50.080;20.040;2022-12-11T17:26:31;18.52;;;11.32;;
54557;SDS011;40452;50.080;20.040;2022-12-11T17:28:57;17.80;;;10.35;;
54557;SDS011;40452;50.080;20.040;2022-12-11T17:31:23;15.82;;;10.48;;
54557;SDS011;40452;50.080;20.040;2022-12-11T17:33:49;16.63;;;10.68;;
54557;SDS011;40452;50.080;20.040;2022-12-11T17:36:16;15.98;;;11.40;;
54557;SDS011;40452;50.080;20.040;2022-12-11T17:38:43;17.08;;;10.70;;
54557;SDS011;40452;50.080;20.040;2022-12-11T17:41:09;16.73;;;10.35;;
54557;SDS011;40452;50.080;20.040;2022-12-11T17:43:36;16.60;;;10.48;;
54557;SDS011;40452;50.080;20.040;2022-12-11T17:46:02;15.65;;;11.13;;
54557;SDS011;40452;50.080;20.040;2022-12-11T17:48:28;17.52;;;10.27;;
54557;SDS011;40452;50.080;20.040;2022-12-11T17:50:53;15.70;;;10.07;;
54557;SDS011;40452;50.080;20.040;2022-12-11T17:53:19;20.15;;;10.77;;
54557;SDS011;40452;50.080;20.040;2022-12-11T17:55:46;16.17;;;10.90;;
54557;SDS011;40452;50.080;20.040;2022-12-11T17:58:16;16.52;;;10.50;;
54557;SDS011;40452;50.080;20.040;2022-12-11T18:00:45;16.80;;;10.93;;
54557;SDS011;40452;50.080;20.040;2022-12-11T18:03:11;15.13;;;10.23;;
54557;SDS011;40452;50.080;20.040;2022-12-11T18:05:41;15.18;;;9.75;;
54557;SDS011;40452;50.080;20.040;2022-12-11T18:08:10;20.40;;;10.82;;
54557;SDS011;40452;50.080;20.040;2022-12-11T18:10:36;20.67;;;10.00;;
54557;SDS011;40452;50.080;20.040;2022-12-11T18:13:02;18.42;;;9.88;;
54557;SDS011;40452;50.080;20.040;2022-12-11T18:15:27;14.63;;;9.07;;
54557;SDS011;40452;50.080;20.040;2022-12-11T18:17:55;18.90;;;9.70;;
54557;SDS011;40452;50.080;20.040;2022-12-11T18:20:21;15.90;;;8.98;;
54557;SDS011;40452;50.080;20.040;2022-12-11T18:22:47;14.82;;;9.82;;
54557;SDS011;40452;50.080;20.040;2022-12-11T18:25:13;14.60;;;9.68;;
54557;SDS011;40452;50.080;20.040;2022-12-11T18:27:39;19.40;;;9.88;;
54557;SDS011;40452;50.080;20.040;2022-12-11T18:30:04;14.68;;;9.30;;
54557;SDS011;40452;50.080;20.040;2022-12-11T18:32:30;15.82;;;9.70;;
54557;SDS011;40452;50.080;20.040;2022-12-11T18:34:56;14.68;;;9.65;;
54557;SDS011;40452;50.080;20.040;2022-12-11T18:37:21;18.08;;;9.35;;
54557;SDS011;40452;50.080;20.040;2022-12-11T18:39:47;13.55;;;8.63;;
54557;SDS011;40452;50.080;20.040;2022-12-11T18:42:13;19.30;;;9.82;;
54557;SDS011;40452;50.080;20.040;2022-12-11T18:44:38;12.98;;;8.85;;
54557;SDS011;40452;50.080;20.040;2022-12-11T18:47:04;14.80;;;9.52;;
54557;SDS011;40452;50.080;20.040;2022-12-11T18:49:30;14.00;;;9.25;;
54557;SDS011;40452;50.080;20.040;2022-12-11T18:51:56;17.52;;;9.95;;
54557;SDS011;40452;50.080;20.040;2022-12-11T18:54:22;19.88;;;10.15;;
54557;SDS011;40452;50.080;20.040;2022-12-11T18:56:47;16.33;;;9.35;;
54557;SDS011;40452;50.080;20.040;2022-12-11T18:59:13;16.75;;;9.30;;
54557;SDS011;40452;50.080;20.040;2022-12-11T19:01:39;15.82;;;9.20;;
54557;SDS011;40452;50.080;20.040;2022-12-11T19:04:05;15.10;;;8.95;;
54557;SDS011;40452;50.080;20.040;2022-12-11T19:06:30;14.60;;;9.35;;
54557;SDS011;40452;50.080;20.040;2022-12-11T19:08:57;13.10;;;9.15;;
54557;SDS011;40452;50.080;20.040;2022-12-11T19:11:24;16.08;;;9.50;;
54557;SDS011;40452;50.080;20.040;2022-12-11T19:13:51;14.10;;;8.65;;
54557;SDS011;40452;50.080;20.040;2022-12-11T19:16:19;14.35;;;8.65;;
54557;SDS011;40452;50.080;20.040;2022-12-11T19:18:49;13.10;;;8.75;;
54557;SDS011;40452;50.080;20.040;2022-12-11T19:21:15;13.88;;;8.80;;
54557;SDS011;40452;50.080;20.040;2022-12-11T19:23:41;13.35;;;8.88;;
54557;SDS011;40452;50.080;20.040;2022-12-11T19:26:09;13.20;;;9.18;;
54557;SDS011;40452;50.080;20.040;2022-12-11T19:28:36;13.82;;;8.90;;
54557;SDS011;40452;50.080;20.040;2022-12-11T19:31:01;14.63;;;8.85;;
54557;SDS011;40452;50.080;20.040;2022-12-11T19:33:27;12.88;;;8.50;;
54557;SDS011;40452;50.080;20.040;2022-12-11T19:36:02;11.15;;;8.05;;
54557;SDS011;40452;50.080;20.040;2022-12-11T19:38:31;11.80;;;8.20;;
54557;SDS011;40452;50.080;20.040;2022-12-11T19:40:57;11.93;;;7.97;;
54557;SDS011;40452;50.080;20.040;2022-12-11T19:43:22;12.25;;;7.63;;
54557;SDS011;40452;50.080;20.040;2022-12-11T19:45:48;12.45;;;8.45;;
54557;SDS011;40452;50.080;20.040;2022-12-11T19:48:13;10.95;;;7.55;;
54557;SDS011;40452;50.080;20.040;2022-12-11T19:50:39;11.85;;;7.93;;
54557;SDS011;40452;50.080;20.040;2022-12-11T19:53:05;12.75;;;8.10;;
54557;SDS011;40452;50.080;20.040;2022-12-11T19:55:31;10.88;;;7.10;;
54557;SDS011;40452;50.080;20.040;2022-12-11T19:57:56;12.25;;;7.30;;
54557;SDS011;40452;50.080;20.040;2022-12-11T20:00:22;11.52;;;7.20;;
54557;SDS011;40452;50.080;20.040;2022-12-11T20:02:48;12.13;;;7.55;;
54557;SDS011;40452;50.080;20.040;2022-12-11T20:05:14;12.25;;;7.55;;
54557;SDS011;40452;50.080;20.040;2022-12-11T20:07:40;12.18;;;7.18;;
54557;SDS011;40452;50.080;20.040;2022-12-11T20:10:08;11.48;;;7.40;;
54557;SDS011;40452;50.080;20.040;2022-12-11T20:12:35;12.10;;;7.80;;
54557;SDS011;40452;50.080;20.040;2022-12-11T20:15:00;13.82;;;8.23;;
54557;SDS011;40452;50.080;20.040;2022-12-11T20:17:28;12.02;;;7.43;;
54557;SDS011;40452;50.080;20.040;2022-12-11T20:19:54;12.30;;;7.65;;
54557;SDS011;40452;50.080;20.040;2022-12-11T20:22:19;12.65;;;7.32;;
54557;SDS011;40452;50.080;20.040;2022-12-11T20:24:45;11.68;;;7.50;;
54557;SDS011;40452;50.080;20.040;2022-12-11T20:27:11;11.20;;;7.65;;
54557;SDS011;40452;50.080;20.040;2022-12-11T20:29:36;13.18;;;7.68;;
54557;SDS011;40452;50.080;20.040;2022-12-11T20:32:02;11.05;;;7.20;;
54557;SDS011;40452;50.080;20.040;2022-12-11T20:34:28;12.77;;;7.95;;
54557;SDS011;40452;50.080;20.040;2022-12-11T20:36:54;11.15;;;8.02;;
54557;SDS011;40452;50.080;20.040;2022-12-11T20:39:20;13.32;;;7.68;;
54557;SDS011;40452;50.080;20.040;2022-12-11T20:41:45;10.38;;;7.50;;
54557;SDS011;40452;50.080;20.040;2022-12-11T20:44:11;16.13;;;8.40;;
54557;SDS011;40452;50.080;20.040;2022-12-11T20:46:37;12.23;;;8.25;;
54557;SDS011;40452;50.080;20.040;2022-12-11T20:49:02;14.27;;;7.88;;
54557;SDS011;40452;50.080;20.040;2022-12-11T20:51:28;13.30;;;7.70;;
54557;SDS011;40452;50.080;20.040;2022-12-11T20:53:54;12.82;;;8.23;;
54557;SDS011;40452;50.080;20.040;2022-12-11T20:56:23;12.40;;;8.45;;
54557;SDS011;40452;50.080;20.040;2022-12-11T20:58:51;13.77;;;8.48;;
54557;SDS011;40452;50.080;20.040;2022-12-11T21:01:17;20.48;;;8.73;;
54557;SDS011;40452;50.080;20.040;2022-12-11T21:03:45;13.05;;;8.10;;
54557;SDS011;40452;50.080;20.040;2022-12-11T21:06:21;14.48;;;8.13;;
54557;SDS011;40452;50.080;20.040;2022-12-11T21:08:55;11.57;;;7.70;;
54557;SDS011;40452;50.080;20.040;2022-12-11T21:11:22;11.57;;;7.32;;
54557;SDS011;40452;50.080;20.040;2022-12-11T21:13:48;13.32;;;8.10;;
54557;SDS011;40452;50.080;20.040;2022-12-11T21:16:15;10.63;;;7.18;;
54557;SDS011;40452;50.080;20.040;2022-12-11T21:18:40;11.15;;;7.20;;
54557;SDS011;40452;50.080;20.040;2022-12-11T21:21:08;11.20;;;7.80;;
54557;SDS011;40452;50.080;20.040;2022-12-11T21:23:33;12.18;;;7.45;;
54557;SDS011;40452;50.080;20.040;2022-12-11T21:25:59;17.23;;;8.05;;
54557;SDS011;40452;50.080;20.040;2022-12-11T21:28:25;10.15;;;6.88;;
54557;SDS011;40452;50.080;20.040;2022-12-11T21:30:51;10.70;;;6.75;;
54557;SDS011;40452;50.080;20.040;2022-12-11T21:33:16;11.55;;;7.00;;
54557;SDS011;40452;50.080;20.040;2022-12-11T21:35:42;9.18;;;6.75;;
54557;SDS011;40452;50.080;20.040;2022-12-11T21:38:07;11.38;;;6.90;;
54557;SDS011;40452;50.080;20.040;2022-12-11T21:40:33;10.32;;;6.30;;
54557;SDS011;40452;50.080;20.040;2022-12-11T21:42:59;11.25;;;7.15;;
54557;SDS011;40452;50.080;20.040;2022-12-11T21:45:25;10.35;;;7.03;;
54557;SDS011;40452;50.080;20.040;2022-12-11T21:47:50;12.57;;;7.03;;
54557;SDS011;40452;50.080;20.040;2022-12-11T21:50:16;9.80;;;6.85;;
54557;SDS011;40452;50.080;20.040;2022-12-11T21:52:42;11.10;;;6.93;;